sensor_id;sensor_type;location;lat;lon;timestamp;P1;durP1;ratioP1;P2;durP2;ratioP2
75044;SDS011;63614;56.026;35.960;2023-11-21T00:01:57;23.20;;;7.95;;
75044;SDS011;63614;56.026;35.960;2023-11-21T00:04:24;12.32;;;6.90;;
75044;SDS011;63614;56.026;35.960;2023-11-21T00:06:50;13.20;;;6.15;;
75044;SDS011;63614;56.026;35.960;2023-11-21T00:09:17;12.57;;;7.43;;
75044;SDS011;63614;56.026;35.960;2023-11-21T00:11:43;14.18;;;6.53;;
75044;SDS011;63614;56.026;35.960;2023-11-21T00:14:12;16.10;;;6.95;;
75044;SDS011;63614;56.026;35.960;2023-11-21T00:16:41;10.98;;;6.30;;
75044;SDS011;63614;56.026;35.960;2023-11-21T00:19:07;15.57;;;7.43;;
75044;SDS011;63614;56.026;35.960;2023-11-21T00:21:33;12.25;;;6.80;;
75044;SDS011;63614;56.026;35.960;2023-11-21T00:23:58;11.65;;;6.70;;
75044;SDS011;63614;56.026;35.960;2023-11-21T00:26:24;9.98;;;5.47;;
75044;SDS011;63614;56.026;35.960;2023-11-21T00:29:00;9.77;;;5.88;;
75044;SDS011;63614;56.026;35.960;2023-11-21T00:31:26;12.68;;;6.68;;
75044;SDS011;63614;56.026;35.960;2023-11-21T00:33:52;11.82;;;6.80;;
75044;SDS011;63614;56.026;35.960;2023-11-21T00:36:19;12.18;;;4.57;;
75044;SDS011;63614;56.026;35.960;2023-11-21T00:38:45;11.70;;;6.28;;
75044;SDS011;63614;56.026;35.960;2023-11-21T00:41:11;13.90;;;5.72;;
75044;SDS011;63614;56.026;35.960;2023-11-21T00:43:37;10.65;;;5.63;;
75044;SDS011;63614;56.026;35.960;2023-11-21T00:46:06;10.93;;;6.50;;
75044;SDS011;63614;56.026;35.960;2023-11-21T00:48:35;11.55;;;6.40;;
75044;SDS011;63614;56.026;35.960;2023-11-21T00:51:00;12.38;;;6.50;;
75044;SDS011;63614;56.026;35.960;2023-11-21T00:53:26;13.00;;;6.00;;
75044;SDS011;63614;56.026;35.960;2023-11-21T00:55:52;11.15;;;6.75;;
75044;SDS011;63614;56.026;35.960;2023-11-21T00:58:26;11.48;;;5.90;;
75044;SDS011;63614;56.026;35.960;2023-11-21T01:00:52;11.20;;;5.25;;
75044;SDS011;63614;56.026;35.960;2023-11-21T01:03:18;14.57;;;5.68;;
75044;SDS011;63614;56.026;35.960;2023-11-21T01:05:44;12.20;;;6.55;;
75044;SDS011;63614;56.026;35.960;2023-11-21T01:08:11;13.25;;;6.18;;
75044;SDS011;63614;56.026;35.960;2023-11-21T01:10:37;10.68;;;5.57;;
75044;SDS011;63614;56.026;35.960;2023-11-21T01:13:03;13.20;;;6.50;;
75044;SDS011;63614;56.026;35.960;2023-11-21T01:15:33;15.60;;;6.22;;
75044;SDS011;63614;56.026;35.960;2023-11-21T01:17:59;10.85;;;6.13;;
75044;SDS011;63614;56.026;35.960;2023-11-21T01:20:25;13.13;;;6.88;;
75044;SDS011;63614;56.026;35.960;2023-11-21T01:22:51;13.75;;;5.50;;
75044;SDS011;63614;56.026;35.960;2023-11-21T01:25:20;16.17;;;7.78;;
75044;SDS011;63614;56.026;35.960;2023-11-21T01:27:48;14.02;;;6.18;;
75044;SDS011;63614;56.026;35.960;2023-11-21T01:30:14;11.45;;;5.95;;
75044;SDS011;63614;56.026;35.960;2023-11-21T01:32:41;11.02;;;6.50;;
75044;SDS011;63614;56.026;35.960;2023-11-21T01:35:09;10.43;;;5.55;;
75044;SDS011;63614;56.026;35.960;2023-11-21T01:37:38;10.27;;;5.97;;
75044;SDS011;63614;56.026;35.960;2023-11-21T01:40:04;11.40;;;6.50;;
75044;SDS011;63614;56.026;35.960;2023-11-21T01:42:35;15.80;;;6.88;;
75044;SDS011;63614;56.026;35.960;2023-11-21T01:45:01;13.55;;;6.70;;
75044;SDS011;63614;56.026;35.960;2023-11-21T01:47:32;11.30;;;6.07;;
75044;SDS011;63614;56.026;35.960;2023-11-21T01:49:59;14.43;;;7.38;;
75044;SDS011;63614;56.026;35.960;2023-11-21T01:52:25;9.82;;;5.80;;
75044;SDS011;63614;56.026;35.960;2023-11-21T01:54:54;14.35;;;6.63;;
75044;SDS011;63614;56.026;35.960;2023-11-21T01:57:20;12.30;;;6.65;;
75044;SDS011;63614;56.026;35.960;2023-11-21T01:59:46;14.80;;;6.75;;
75044;SDS011;63614;56.026;35.960;2023-11-21T02:02:15;13.20;;;5.80;;
75044;SDS011;63614;56.026;35.960;2023-11-21T02:04:42;11.48;;;6.00;;
75044;SDS011;63614;56.026;35.960;2023-11-21T02:09:35;10.20;;;6.25;;
75044;SDS011;63614;56.026;35.960;2023-11-21T02:12:03;14.07;;;6.15;;
75044;SDS011;63614;56.026;35.960;2023-11-21T02:14:31;13.60;;;5.25;;
75044;SDS011;63614;56.026;35.960;2023-11-21T02:16:57;11.02;;;5.97;;
75044;SDS011;63614;56.026;35.960;2023-11-21T02:19:24;12.15;;;6.10;;
75044;SDS011;63614;56.026;35.960;2023-11-21T02:21:56;10.25;;;5.03;;
75044;SDS011;63614;56.026;35.960;2023-11-21T02:24:31;11.55;;;6.65;;
75044;SDS011;63614;56.026;35.960;2023-11-21T02:26:58;13.57;;;6.93;;
75044;SDS011;63614;56.026;35.960;2023-11-21T02:29:24;11.25;;;6.22;;
75044;SDS011;63614;56.026;35.960;2023-11-21T02:31:56;8.95;;;5.20;;
75044;SDS011;63614;56.026;35.960;2023-11-21T02:34:22;13.05;;;6.43;;
75044;SDS011;63614;56.026;35.960;2023-11-21T02:36:48;14.95;;;5.90;;
75044;SDS011;63614;56.026;35.960;2023-11-21T02:39:17;10.93;;;6.43;;
75044;SDS011;63614;56.026;35.960;2023-11-21T02:41:44;10.85;;;6.35;;
75044;SDS011;63614;56.026;35.960;2023-11-21T02:44:10;19.70;;;7.63;;
75044;SDS011;63614;56.026;35.960;2023-11-21T02:46:36;15.15;;;6.70;;
75044;SDS011;63614;56.026;35.960;2023-11-21T02:49:03;11.52;;;5.90;;
75044;SDS011;63614;56.026;35.960;2023-11-21T02:51:32;14.85;;;7.07;;
75044;SDS011;63614;56.026;35.960;2023-11-21T02:53:59;15.90;;;6.50;;
75044;SDS011;63614;56.026;35.960;2023-11-21T02:56:28;12.98;;;6.53;;
75044;SDS011;63614;56.026;35.960;2023-11-21T02:58:55;13.77;;;6.40;;
75044;SDS011;63614;56.026;35.960;2023-11-21T03:01:21;18.00;;;6.32;;
75044;SDS011;63614;56.026;35.960;2023-11-21T03:03:47;12.82;;;5.82;;
75044;SDS011;63614;56.026;35.960;2023-11-21T03:06:19;10.95;;;5.78;;
75044;SDS011;63614;56.026;35.960;2023-11-21T03:08:46;13.50;;;5.97;;
75044;SDS011;63614;56.026;35.960;2023-11-21T03:11:12;11.65;;;6.50;;
75044;SDS011;63614;56.026;35.960;2023-11-21T03:13:39;11.30;;;5.43;;
75044;SDS011;63614;56.026;35.960;2023-11-21T03:16:09;14.18;;;6.28;;
75044;SDS011;63614;56.026;35.960;2023-11-21T03:18:39;15.85;;;5.07;;
75044;SDS011;63614;56.026;35.960;2023-11-21T03:21:05;15.30;;;6.88;;
75044;SDS011;63614;56.026;35.960;2023-11-21T03:23:35;12.13;;;6.07;;
75044;SDS011;63614;56.026;35.960;2023-11-21T03:26:03;12.95;;;6.22;;
75044;SDS011;63614;56.026;35.960;2023-11-21T03:28:30;13.18;;;6.38;;
75044;SDS011;63614;56.026;35.960;2023-11-21T03:30:57;10.98;;;5.63;;
75044;SDS011;63614;56.026;35.960;2023-11-21T03:33:23;17.33;;;7.03;;
75044;SDS011;63614;56.026;35.960;2023-11-21T03:35:50;14.13;;;6.82;;
75044;SDS011;63614;56.026;35.960;2023-11-21T03:38:19;13.07;;;6.28;;
75044;SDS011;63614;56.026;35.960;2023-11-21T03:40:46;15.75;;;7.40;;
75044;SDS011;63614;56.026;35.960;2023-11-21T03:43:13;13.37;;;6.93;;
75044;SDS011;63614;56.026;35.960;2023-11-21T03:45:39;13.70;;;6.97;;
75044;SDS011;63614;56.026;35.960;2023-11-21T03:48:07;11.63;;;6.82;;
75044;SDS011;63614;56.026;35.960;2023-11-21T03:50:37;14.18;;;7.57;;
75044;SDS011;63614;56.026;35.960;2023-11-21T03:53:05;20.30;;;7.38;;
75044;SDS011;63614;56.026;35.960;2023-11-21T03:55:31;13.43;;;7.55;;
75044;SDS011;63614;56.026;35.960;2023-11-21T03:57:58;13.55;;;7.30;;
75044;SDS011;63614;56.026;35.960;2023-11-21T04:00:24;13.17;;;6.50;;
75044;SDS011;63614;56.026;35.960;2023-11-21T04:02:52;13.55;;;6.38;;
75044;SDS011;63614;56.026;35.960;2023-11-21T04:05:20;11.68;;;6.13;;
75044;SDS011;63614;56.026;35.960;2023-11-21T04:07:49;12.40;;;6.93;;
75044;SDS011;63614;56.026;35.960;2023-11-21T04:10:18;12.30;;;6.75;;
75044;SDS011;63614;56.026;35.960;2023-11-21T04:12:44;9.98;;;5.57;;
75044;SDS011;63614;56.026;35.960;2023-11-21T04:15:11;16.08;;;6.32;;
75044;SDS011;63614;56.026;35.960;2023-11-21T04:17:40;11.77;;;5.63;;
75044;SDS011;63614;56.026;35.960;2023-11-21T04:20:07;10.43;;;5.30;;
75044;SDS011;63614;56.026;35.960;2023-11-21T04:22:41;10.70;;;5.57;;
75044;SDS011;63614;56.026;35.960;2023-11-21T04:25:18;12.32;;;6.38;;
75044;SDS011;63614;56.026;35.960;2023-11-21T04:27:44;11.93;;;6.18;;
75044;SDS011;63614;56.026;35.960;2023-11-21T04:30:12;11.97;;;5.77;;
75044;SDS011;63614;56.026;35.960;2023-11-21T04:32:39;13.50;;;5.35;;
75044;SDS011;63614;56.026;35.960;2023-11-21T04:35:05;9.88;;;4.75;;
75044;SDS011;63614;56.026;35.960;2023-11-21T04:37:31;12.85;;;5.75;;
75044;SDS011;63614;56.026;35.960;2023-11-21T04:39:57;13.27;;;5.80;;
75044;SDS011;63614;56.026;35.960;2023-11-21T04:42:24;13.30;;;5.90;;
75044;SDS011;63614;56.026;35.960;2023-11-21T04:44:50;10.23;;;5.70;;
75044;SDS011;63614;56.026;35.960;2023-11-21T04:47:15;12.27;;;5.88;;
75044;SDS011;63614;56.026;35.960;2023-11-21T04:49:41;11.73;;;6.90;;
75044;SDS011;63614;56.026;35.960;2023-11-21T04:52:08;12.25;;;6.35;;
75044;SDS011;63614;56.026;35.960;2023-11-21T04:54:35;10.13;;;5.03;;
75044;SDS011;63614;56.026;35.960;2023-11-21T04:57:01;15.03;;;6.70;;
75044;SDS011;63614;56.026;35.960;2023-11-21T04:59:27;14.13;;;6.03;;
75044;SDS011;63614;56.026;35.960;2023-11-21T05:01:53;11.80;;;6.70;;
75044;SDS011;63614;56.026;35.960;2023-11-21T05:04:20;11.05;;;5.97;;
75044;SDS011;63614;56.026;35.960;2023-11-21T05:06:48;12.40;;;4.80;;
75044;SDS011;63614;56.026;35.960;2023-11-21T05:09:14;13.80;;;6.55;;
75044;SDS011;63614;56.026;35.960;2023-11-21T05:14:07;9.93;;;5.75;;
75044;SDS011;63614;56.026;35.960;2023-11-21T05:16:34;10.18;;;5.72;;
75044;SDS011;63614;56.026;35.960;2023-11-21T05:19:01;12.33;;;6.57;;
75044;SDS011;63614;56.026;35.960;2023-11-21T05:21:27;14.20;;;6.77;;
75044;SDS011;63614;56.026;35.960;2023-11-21T05:23:55;17.65;;;6.05;;
75044;SDS011;63614;56.026;35.960;2023-11-21T05:26:21;12.48;;;6.70;;
75044;SDS011;63614;56.026;35.960;2023-11-21T05:28:47;15.57;;;6.90;;
75044;SDS011;63614;56.026;35.960;2023-11-21T05:31:13;11.38;;;5.38;;
75044;SDS011;63614;56.026;35.960;2023-11-21T05:33:40;10.63;;;5.13;;
75044;SDS011;63614;56.026;35.960;2023-11-21T05:36:06;9.52;;;5.85;;
75044;SDS011;63614;56.026;35.960;2023-11-21T05:38:34;14.10;;;6.15;;
75044;SDS011;63614;56.026;35.960;2023-11-21T05:41:01;15.75;;;5.70;;
75044;SDS011;63614;56.026;35.960;2023-11-21T05:43:27;14.68;;;6.55;;
75044;SDS011;63614;56.026;35.960;2023-11-21T05:45:55;11.02;;;5.80;;
75044;SDS011;63614;56.026;35.960;2023-11-21T05:48:20;12.00;;;5.55;;
75044;SDS011;63614;56.026;35.960;2023-11-21T05:50:46;10.00;;;4.68;;
75044;SDS011;63614;56.026;35.960;2023-11-21T05:53:15;14.00;;;6.75;;
75044;SDS011;63614;56.026;35.960;2023-11-21T05:55:42;9.60;;;5.67;;
75044;SDS011;63614;56.026;35.960;2023-11-21T05:58:08;11.45;;;6.20;;
75044;SDS011;63614;56.026;35.960;2023-11-21T06:00:34;12.13;;;6.03;;
75044;SDS011;63614;56.026;35.960;2023-11-21T06:03:00;11.98;;;6.47;;
75044;SDS011;63614;56.026;35.960;2023-11-21T06:05:26;13.40;;;6.82;;
75044;SDS011;63614;56.026;35.960;2023-11-21T06:07:53;15.70;;;7.20;;
75044;SDS011;63614;56.026;35.960;2023-11-21T06:10:21;17.33;;;7.22;;
75044;SDS011;63614;56.026;35.960;2023-11-21T06:12:49;11.18;;;6.18;;
75044;SDS011;63614;56.026;35.960;2023-11-21T06:15:15;14.32;;;6.85;;
75044;SDS011;63614;56.026;35.960;2023-11-21T06:17:42;13.93;;;6.90;;
75044;SDS011;63614;56.026;35.960;2023-11-21T06:20:09;21.08;;;7.68;;
75044;SDS011;63614;56.026;35.960;2023-11-21T06:22:37;12.25;;;6.63;;
75044;SDS011;63614;56.026;35.960;2023-11-21T06:25:09;12.00;;;6.95;;
75044;SDS011;63614;56.026;35.960;2023-11-21T06:27:39;13.18;;;6.40;;
75044;SDS011;63614;56.026;35.960;2023-11-21T06:30:05;25.17;;;6.67;;
75044;SDS011;63614;56.026;35.960;2023-11-21T06:32:33;20.40;;;6.75;;
75044;SDS011;63614;56.026;35.960;2023-11-21T06:35:01;12.40;;;6.03;;
75044;SDS011;63614;56.026;35.960;2023-11-21T06:37:31;11.15;;;6.15;;
75044;SDS011;63614;56.026;35.960;2023-11-21T06:39:58;12.93;;;7.10;;
75044;SDS011;63614;56.026;35.960;2023-11-21T06:42:24;12.68;;;7.43;;
75044;SDS011;63614;56.026;35.960;2023-11-21T06:44:51;18.23;;;7.57;;
75044;SDS011;63614;56.026;35.960;2023-11-21T06:47:17;12.32;;;6.50;;
75044;SDS011;63614;56.026;35.960;2023-11-21T06:49:45;16.75;;;7.45;;
75044;SDS011;63614;56.026;35.960;2023-11-21T06:52:13;14.00;;;6.60;;
75044;SDS011;63614;56.026;35.960;2023-11-21T06:54:40;11.95;;;6.10;;
75044;SDS011;63614;56.026;35.960;2023-11-21T06:57:05;13.80;;;7.30;;
75044;SDS011;63614;56.026;35.960;2023-11-21T06:59:31;16.63;;;7.55;;
75044;SDS011;63614;56.026;35.960;2023-11-21T07:01:57;13.10;;;6.43;;
75044;SDS011;63614;56.026;35.960;2023-11-21T07:04:23;12.82;;;6.97;;
75044;SDS011;63614;56.026;35.960;2023-11-21T07:06:51;18.13;;;7.03;;
75044;SDS011;63614;56.026;35.960;2023-11-21T07:09:19;12.55;;;6.97;;
75044;SDS011;63614;56.026;35.960;2023-11-21T07:11:49;11.50;;;6.75;;
75044;SDS011;63614;56.026;35.960;2023-11-21T07:14:15;17.58;;;7.57;;
75044;SDS011;63614;56.026;35.960;2023-11-21T07:16:42;9.23;;;6.15;;
75044;SDS011;63614;56.026;35.960;2023-11-21T07:19:09;10.80;;;6.13;;
75044;SDS011;63614;56.026;35.960;2023-11-21T07:21:35;14.70;;;6.78;;
75044;SDS011;63614;56.026;35.960;2023-11-21T07:24:04;22.38;;;7.80;;
75044;SDS011;63614;56.026;35.960;2023-11-21T07:26:31;15.15;;;7.30;;
75044;SDS011;63614;56.026;35.960;2023-11-21T07:28:59;12.57;;;6.55;;
75044;SDS011;63614;56.026;35.960;2023-11-21T07:31:25;11.80;;;6.63;;
75044;SDS011;63614;56.026;35.960;2023-11-21T07:33:51;13.07;;;6.68;;
75044;SDS011;63614;56.026;35.960;2023-11-21T07:36:19;13.48;;;7.82;;
75044;SDS011;63614;56.026;35.960;2023-11-21T07:41:11;13.52;;;7.25;;
75044;SDS011;63614;56.026;35.960;2023-11-21T07:43:41;15.98;;;7.10;;
75044;SDS011;63614;56.026;35.960;2023-11-21T07:46:08;11.68;;;5.03;;
75044;SDS011;63614;56.026;35.960;2023-11-21T07:48:34;14.13;;;6.47;;
75044;SDS011;63614;56.026;35.960;2023-11-21T07:51:01;14.27;;;7.33;;
75044;SDS011;63614;56.026;35.960;2023-11-21T07:53:31;26.40;;;10.75;;
75044;SDS011;63614;56.026;35.960;2023-11-21T07:55:58;17.20;;;7.40;;
75044;SDS011;63614;56.026;35.960;2023-11-21T07:58:34;19.52;;;8.93;;
75044;SDS011;63614;56.026;35.960;2023-11-21T08:01:04;26.00;;;10.23;;
75044;SDS011;63614;56.026;35.960;2023-11-21T08:03:30;24.23;;;10.13;;
75044;SDS011;63614;56.026;35.960;2023-11-21T08:05:57;18.45;;;6.68;;
75044;SDS011;63614;56.026;35.960;2023-11-21T08:08:24;15.98;;;6.72;;
75044;SDS011;63614;56.026;35.960;2023-11-21T08:10:50;13.27;;;7.03;;
75044;SDS011;63614;56.026;35.960;2023-11-21T08:13:27;22.00;;;6.50;;
75044;SDS011;63614;56.026;35.960;2023-11-21T08:15:56;15.00;;;7.07;;
75044;SDS011;63614;56.026;35.960;2023-11-21T08:18:27;12.68;;;5.07;;
75044;SDS011;63614;56.026;35.960;2023-11-21T08:21:13;18.40;;;7.93;;
75044;SDS011;63614;56.026;35.960;2023-11-21T08:23:38;9.73;;;5.35;;
75044;SDS011;63614;56.026;35.960;2023-11-21T08:26:04;12.45;;;6.80;;
75044;SDS011;63614;56.026;35.960;2023-11-21T08:28:31;15.15;;;6.82;;
75044;SDS011;63614;56.026;35.960;2023-11-21T08:30:57;14.52;;;6.13;;
75044;SDS011;63614;56.026;35.960;2023-11-21T08:33:23;10.93;;;5.30;;
75044;SDS011;63614;56.026;35.960;2023-11-21T08:38:39;11.20;;;5.85;;
75044;SDS011;63614;56.026;35.960;2023-11-21T08:41:06;10.10;;;6.15;;
75044;SDS011;63614;56.026;35.960;2023-11-21T08:43:36;11.57;;;4.73;;
75044;SDS011;63614;56.026;35.960;2023-11-21T08:46:07;9.70;;;5.22;;
75044;SDS011;63614;56.026;35.960;2023-11-21T08:48:36;12.35;;;6.00;;
75044;SDS011;63614;56.026;35.960;2023-11-21T08:51:03;10.73;;;6.45;;
75044;SDS011;63614;56.026;35.960;2023-11-21T08:53:30;7.93;;;4.70;;
75044;SDS011;63614;56.026;35.960;2023-11-21T08:55:56;9.80;;;5.30;;
75044;SDS011;63614;56.026;35.960;2023-11-21T08:58:22;8.68;;;4.55;;
75044;SDS011;63614;56.026;35.960;2023-11-21T09:00:48;9.35;;;4.65;;
75044;SDS011;63614;56.026;35.960;2023-11-21T09:03:14;11.02;;;5.47;;
75044;SDS011;63614;56.026;35.960;2023-11-21T09:05:39;7.35;;;3.92;;
75044;SDS011;63614;56.026;35.960;2023-11-21T09:08:05;9.75;;;5.30;;
75044;SDS011;63614;56.026;35.960;2023-11-21T09:10:33;8.07;;;3.58;;
75044;SDS011;63614;56.026;35.960;2023-11-21T09:13:02;10.68;;;6.10;;
75044;SDS011;63614;56.026;35.960;2023-11-21T09:15:28;11.85;;;5.70;;
75044;SDS011;63614;56.026;35.960;2023-11-21T09:17:54;8.13;;;5.10;;
75044;SDS011;63614;56.026;35.960;2023-11-21T09:20:20;10.52;;;4.28;;
75044;SDS011;63614;56.026;35.960;2023-11-21T09:22:48;9.48;;;4.53;;
75044;SDS011;63614;56.026;35.960;2023-11-21T09:25:14;9.20;;;4.72;;
75044;SDS011;63614;56.026;35.960;2023-11-21T09:27:41;8.18;;;4.63;;
75044;SDS011;63614;56.026;35.960;2023-11-21T09:30:07;12.68;;;4.68;;
75044;SDS011;63614;56.026;35.960;2023-11-21T09:32:37;9.45;;;4.80;;
75044;SDS011;63614;56.026;35.960;2023-11-21T09:35:04;11.85;;;5.95;;
75044;SDS011;63614;56.026;35.960;2023-11-21T09:37:31;9.27;;;5.20;;
75044;SDS011;63614;56.026;35.960;2023-11-21T09:39:57;11.05;;;5.55;;
75044;SDS011;63614;56.026;35.960;2023-11-21T09:42:23;9.10;;;4.50;;
75044;SDS011;63614;56.026;35.960;2023-11-21T09:45:15;6.65;;;3.63;;
75044;SDS011;63614;56.026;35.960;2023-11-21T09:47:46;6.70;;;3.88;;
75044;SDS011;63614;56.026;35.960;2023-11-21T09:50:13;11.75;;;4.50;;
75044;SDS011;63614;56.026;35.960;2023-11-21T09:55:36;7.85;;;4.00;;
75044;SDS011;63614;56.026;35.960;2023-11-21T09:58:04;9.85;;;4.60;;
75044;SDS011;63614;56.026;35.960;2023-11-21T10:00:33;8.25;;;4.75;;
75044;SDS011;63614;56.026;35.960;2023-11-21T10:03:00;9.32;;;4.35;;
75044;SDS011;63614;56.026;35.960;2023-11-21T10:05:25;9.05;;;4.93;;
75044;SDS011;63614;56.026;35.960;2023-11-21T10:07:52;8.95;;;4.05;;
75044;SDS011;63614;56.026;35.960;2023-11-21T10:10:22;9.38;;;4.53;;
75044;SDS011;63614;56.026;35.960;2023-11-21T10:12:50;11.63;;;3.88;;
75044;SDS011;63614;56.026;35.960;2023-11-21T10:15:21;14.00;;;4.78;;
75044;SDS011;63614;56.026;35.960;2023-11-21T10:17:51;10.73;;;4.82;;
75044;SDS011;63614;56.026;35.960;2023-11-21T10:20:24;10.18;;;4.70;;
75044;SDS011;63614;56.026;35.960;2023-11-21T10:22:51;6.45;;;3.58;;
75044;SDS011;63614;56.026;35.960;2023-11-21T10:25:17;6.35;;;3.53;;
75044;SDS011;63614;56.026;35.960;2023-11-21T10:27:47;9.40;;;4.78;;
75044;SDS011;63614;56.026;35.960;2023-11-21T10:30:15;7.53;;;3.33;;
75044;SDS011;63614;56.026;35.960;2023-11-21T10:32:42;6.05;;;3.17;;
75044;SDS011;63614;56.026;35.960;2023-11-21T10:35:08;10.48;;;4.68;;
75044;SDS011;63614;56.026;35.960;2023-11-21T10:37:40;9.13;;;4.53;;
75044;SDS011;63614;56.026;35.960;2023-11-21T10:40:07;8.20;;;3.83;;
75044;SDS011;63614;56.026;35.960;2023-11-21T10:42:38;10.10;;;4.28;;
75044;SDS011;63614;56.026;35.960;2023-11-21T10:45:05;14.85;;;5.00;;
75044;SDS011;63614;56.026;35.960;2023-11-21T10:47:41;12.80;;;4.25;;
75044;SDS011;63614;56.026;35.960;2023-11-21T10:50:09;11.70;;;4.55;;
75044;SDS011;63614;56.026;35.960;2023-11-21T10:52:37;6.05;;;4.00;;
75044;SDS011;63614;56.026;35.960;2023-11-21T10:57:45;6.55;;;4.18;;
75044;SDS011;63614;56.026;35.960;2023-11-21T11:00:14;6.18;;;3.45;;
75044;SDS011;63614;56.026;35.960;2023-11-21T11:02:44;4.43;;;2.35;;
75044;SDS011;63614;56.026;35.960;2023-11-21T11:05:13;9.60;;;3.80;;
75044;SDS011;63614;56.026;35.960;2023-11-21T11:07:42;5.05;;;3.05;;
75044;SDS011;63614;56.026;35.960;2023-11-21T11:12:40;4.80;;;3.15;;
75044;SDS011;63614;56.026;35.960;2023-11-21T11:15:07;7.15;;;4.07;;
75044;SDS011;63614;56.026;35.960;2023-11-21T11:17:37;11.90;;;5.13;;
75044;SDS011;63614;56.026;35.960;2023-11-21T11:20:04;7.82;;;4.60;;
75044;SDS011;63614;56.026;35.960;2023-11-21T11:22:50;9.88;;;5.05;;
75044;SDS011;63614;56.026;35.960;2023-11-21T11:28:35;9.90;;;4.80;;
75044;SDS011;63614;56.026;35.960;2023-11-21T11:36:54;10.90;;;4.53;;
75044;SDS011;63614;56.026;35.960;2023-11-21T11:42:08;10.45;;;5.20;;
75044;SDS011;63614;56.026;35.960;2023-11-21T11:49:57;12.15;;;4.38;;
75044;SDS011;63614;56.026;35.960;2023-11-21T11:52:31;21.17;;;7.60;;
75044;SDS011;63614;56.026;35.960;2023-11-21T11:55:09;11.13;;;5.85;;
75044;SDS011;63614;56.026;35.960;2023-11-21T11:57:36;16.35;;;7.90;;
75044;SDS011;63614;56.026;35.960;2023-11-21T12:00:14;10.73;;;4.60;;
75044;SDS011;63614;56.026;35.960;2023-11-21T12:02:48;11.70;;;6.22;;
75044;SDS011;63614;56.026;35.960;2023-11-21T12:05:18;18.48;;;5.35;;
75044;SDS011;63614;56.026;35.960;2023-11-21T12:07:52;9.23;;;4.78;;
75044;SDS011;63614;56.026;35.960;2023-11-21T12:10:21;10.80;;;4.93;;
75044;SDS011;63614;56.026;35.960;2023-11-21T12:12:54;6.43;;;2.92;;
75044;SDS011;63614;56.026;35.960;2023-11-21T12:15:20;10.00;;;4.70;;
75044;SDS011;63614;56.026;35.960;2023-11-21T12:17:47;7.20;;;3.65;;
75044;SDS011;63614;56.026;35.960;2023-11-21T12:20:15;8.90;;;4.57;;
75044;SDS011;63614;56.026;35.960;2023-11-21T12:22:50;10.45;;;4.05;;
75044;SDS011;63614;56.026;35.960;2023-11-21T12:25:18;13.57;;;6.13;;
75044;SDS011;63614;56.026;35.960;2023-11-21T12:27:47;9.20;;;4.90;;
75044;SDS011;63614;56.026;35.960;2023-11-21T12:30:21;6.90;;;4.15;;
75044;SDS011;63614;56.026;35.960;2023-11-21T12:32:49;9.50;;;4.57;;
75044;SDS011;63614;56.026;35.960;2023-11-21T12:35:17;18.15;;;6.82;;
75044;SDS011;63614;56.026;35.960;2023-11-21T12:37:47;19.90;;;8.80;;
75044;SDS011;63614;56.026;35.960;2023-11-21T12:40:14;11.20;;;6.00;;
75044;SDS011;63614;56.026;35.960;2023-11-21T12:42:41;10.52;;;5.10;;
75044;SDS011;63614;56.026;35.960;2023-11-21T12:45:09;7.35;;;4.40;;
75044;SDS011;63614;56.026;35.960;2023-11-21T12:47:44;11.93;;;5.50;;
75044;SDS011;63614;56.026;35.960;2023-11-21T12:50:10;9.73;;;5.57;;
75044;SDS011;63614;56.026;35.960;2023-11-21T12:52:44;8.50;;;4.20;;
75044;SDS011;63614;56.026;35.960;2023-11-21T12:55:22;9.05;;;4.55;;
75044;SDS011;63614;56.026;35.960;2023-11-21T12:57:52;10.43;;;3.72;;
75044;SDS011;63614;56.026;35.960;2023-11-21T13:00:31;8.57;;;4.50;;
75044;SDS011;63614;56.026;35.960;2023-11-21T13:03:03;7.95;;;4.07;;
75044;SDS011;63614;56.026;35.960;2023-11-21T13:05:33;8.30;;;4.88;;
75044;SDS011;63614;56.026;35.960;2023-11-21T13:08:03;6.93;;;3.58;;
75044;SDS011;63614;56.026;35.960;2023-11-21T13:10:33;4.35;;;2.50;;
75044;SDS011;63614;56.026;35.960;2023-11-21T13:13:02;9.95;;;4.85;;
75044;SDS011;63614;56.026;35.960;2023-11-21T13:15:39;13.77;;;6.25;;
75044;SDS011;63614;56.026;35.960;2023-11-21T13:18:08;8.98;;;4.65;;
75044;SDS011;63614;56.026;35.960;2023-11-21T13:23:06;18.88;;;7.10;;
75044;SDS011;63614;56.026;35.960;2023-11-21T13:25:33;10.93;;;6.05;;
75044;SDS011;63614;56.026;35.960;2023-11-21T13:28:00;14.50;;;6.60;;
75044;SDS011;63614;56.026;35.960;2023-11-21T13:30:26;14.40;;;3.85;;
75044;SDS011;63614;56.026;35.960;2023-11-21T13:32:52;7.20;;;3.30;;
75044;SDS011;63614;56.026;35.960;2023-11-21T13:35:23;11.48;;;4.88;;
75044;SDS011;63614;56.026;35.960;2023-11-21T13:37:56;8.90;;;4.32;;
75044;SDS011;63614;56.026;35.960;2023-11-21T13:40:25;11.57;;;3.70;;
75044;SDS011;63614;56.026;35.960;2023-11-21T13:42:53;12.10;;;4.63;;
75044;SDS011;63614;56.026;35.960;2023-11-21T13:45:21;6.63;;;3.90;;
75044;SDS011;63614;56.026;35.960;2023-11-21T13:47:49;9.23;;;4.70;;
75044;SDS011;63614;56.026;35.960;2023-11-21T13:50:23;6.90;;;3.15;;
75044;SDS011;63614;56.026;35.960;2023-11-21T13:52:54;7.28;;;4.32;;
75044;SDS011;63614;56.026;35.960;2023-11-21T13:55:20;11.00;;;4.15;;
75044;SDS011;63614;56.026;35.960;2023-11-21T13:57:50;10.35;;;4.10;;
75044;SDS011;63614;56.026;35.960;2023-11-21T14:00:18;8.23;;;3.50;;
75044;SDS011;63614;56.026;35.960;2023-11-21T14:03:09;9.45;;;4.82;;
75044;SDS011;63614;56.026;35.960;2023-11-21T14:05:43;6.88;;;3.92;;
75044;SDS011;63614;56.026;35.960;2023-11-21T14:08:13;10.80;;;4.72;;
75044;SDS011;63614;56.026;35.960;2023-11-21T14:10:42;10.20;;;4.40;;
75044;SDS011;63614;56.026;35.960;2023-11-21T14:13:09;11.73;;;5.23;;
75044;SDS011;63614;56.026;35.960;2023-11-21T14:15:41;7.93;;;4.75;;
75044;SDS011;63614;56.026;35.960;2023-11-21T14:18:09;12.13;;;6.20;;
75044;SDS011;63614;56.026;35.960;2023-11-21T14:20:40;8.70;;;4.97;;
75044;SDS011;63614;56.026;35.960;2023-11-21T14:23:07;13.23;;;5.43;;
75044;SDS011;63614;56.026;35.960;2023-11-21T14:25:36;10.02;;;5.32;;
75044;SDS011;63614;56.026;35.960;2023-11-21T14:28:04;11.68;;;5.75;;
75044;SDS011;63614;56.026;35.960;2023-11-21T14:30:32;9.52;;;5.43;;
75044;SDS011;63614;56.026;35.960;2023-11-21T14:32:59;11.95;;;5.07;;
75044;SDS011;63614;56.026;35.960;2023-11-21T14:35:26;8.27;;;4.53;;
75044;SDS011;63614;56.026;35.960;2023-11-21T14:37:52;10.65;;;5.07;;
75044;SDS011;63614;56.026;35.960;2023-11-21T14:40:18;6.10;;;3.58;;
75044;SDS011;63614;56.026;35.960;2023-11-21T14:42:50;9.77;;;4.57;;
75044;SDS011;63614;56.026;35.960;2023-11-21T14:45:18;7.90;;;3.83;;
75044;SDS011;63614;56.026;35.960;2023-11-21T14:47:48;9.02;;;4.88;;
75044;SDS011;63614;56.026;35.960;2023-11-21T14:53:15;8.75;;;4.35;;
75044;SDS011;63614;56.026;35.960;2023-11-21T14:55:45;14.50;;;4.65;;
75044;SDS011;63614;56.026;35.960;2023-11-21T14:58:17;12.10;;;5.13;;
75044;SDS011;63614;56.026;35.960;2023-11-21T15:00:55;10.88;;;5.05;;
75044;SDS011;63614;56.026;35.960;2023-11-21T15:03:24;7.43;;;3.83;;
75044;SDS011;63614;56.026;35.960;2023-11-21T15:06:08;15.88;;;5.03;;
75044;SDS011;63614;56.026;35.960;2023-11-21T15:08:56;9.30;;;4.10;;
75044;SDS011;63614;56.026;35.960;2023-11-21T15:11:32;10.13;;;4.40;;
75044;SDS011;63614;56.026;35.960;2023-11-21T15:13:58;9.27;;;4.30;;